University Park, PA

7:59 AM EDT on May 06, 2015 (GMT -0400)
College Heights | | Change Station
CLOSE
Current Station
Personal Weather Station
Location: State College, PA
Elevation: 1219 ft
Nearby Weather Stations

Elev 1219 ft 40.80 °N, 77.87 °W | Updated 10 seconds ago

Overcast
Overcast
57.3 °F
Feels Like 57.3 °F
N
3.0
Wind Variable Wind from North
Gusts 4.0 mph

Today
High -- | Low -- °F
--% Chance of Precip.
Yesterday
High -- | Low -- °F
Precip. -- in
6:04 AM 8:12 PM
Waning Gibbous, 94% visible
Pressure 30.27 in
Visibility 2.0 miles
Clouds Overcast 300 ft
Dew Point 56 °F
Humidity 95%
Rainfall 0.09 in
Snow Depth Not available.
UV 0 out of 12
Pollen 5.70 out of 12
Air Quality Not available.
Flu Activity Sporadic
METAR KUNV 061153Z 05009KT 2SM -RA BR OVC003 13/13 A3027

More Conditions Fewer Conditions

Pressure 30.27 in
Visibility 2.0 miles
Clouds Overcast 300 ft
Dew Point 56 °F
Humidity 95%
Rainfall 0.09 in
Snow Depth Not available.
UV 0 out of 12
Pollen 5.70 out of 12
Air Quality Not available.
Flu Activity Sporadic
METAR KUNV 061153Z 05009KT 2SM -RA BR OVC003 13/13 A3027

More Conditions Fewer Conditions

Nowcast | as of 7:12 am EDT on May 6, 2015

Showers and isolated thunderstorms will be across portions of central Pennsylvania this morning. Most of the activity will be north and east of a Westover...Mount Union...Gettysburg line through 10 am. Some of the showers and storms will contain brief heavy downpours. The showers and storms are moving southeast at 25 mph.

×

10-Day Weather Forecast

Almanac

Astronomy

May. 06, 2015 Rise Set
Actual Time
Civil Twilight
Nautical Twilight
Astronomical Twilight
Moon
Length of Visible Light
Length of Day
Tomorrow will be .
, % of the Moon is Illuminated

Today's Extremes

State Highs State Lows

Community

WunderPhotos

Upload Photos

1,818,880 photos uploaded!

WunderBlogs® & News

Nearby

Air Quality

  Air Quality AQ Index Pollutant
Not available.

Snow Depth

Station Depth Elevation

Earthquake Activity

City Distance Mag. Time & Date
Minimum magnitude displayed is 2.5.

Coastal Water Temperatures

Place Temperature

Stations

Nearby Weather Stations

Station Location Temp. Windchill Dew Point Humidity Wind Precip. Elev Updated Type